sensor_id;sensor_type;location;lat;lon;timestamp;temperature;humidity
670;DHT22;317;48.758;9.302;2022-10-16T00:00:46;15.70;99.90
670;DHT22;317;48.758;9.302;2022-10-16T00:03:13;15.70;99.90
670;DHT22;317;48.758;9.302;2022-10-16T00:05:41;15.60;99.90
670;DHT22;317;48.758;9.302;2022-10-16T00:08:10;15.70;99.90
670;DHT22;317;48.758;9.302;2022-10-16T00:10:37;15.60;99.90
670;DHT22;317;48.758;9.302;2022-10-16T00:13:06;15.60;99.90
670;DHT22;317;48.758;9.302;2022-10-16T00:15:34;15.60;99.90
670;DHT22;317;48.758;9.302;2022-10-16T00:18:01;15.50;99.90
670;DHT22;317;48.758;9.302;2022-10-16T00:20:28;15.50;99.90
670;DHT22;317;48.758;9.302;2022-10-16T00:22:57;15.40;99.90
670;DHT22;317;48.758;9.302;2022-10-16T00:25:24;15.40;99.90
670;DHT22;317;48.758;9.302;2022-10-16T00:27:51;15.40;99.90
670;DHT22;317;48.758;9.302;2022-10-16T00:30:19;15.30;99.90
670;DHT22;317;48.758;9.302;2022-10-16T00:32:46;15.40;99.90
670;DHT22;317;48.758;9.302;2022-10-16T00:35:13;15.30;99.90
670;DHT22;317;48.758;9.302;2022-10-16T00:37:39;15.20;99.90
670;DHT22;317;48.758;9.302;2022-10-16T00:40:07;15.20;99.90
670;DHT22;317;48.758;9.302;2022-10-16T00:42:34;15.10;99.90
670;DHT22;317;48.758;9.302;2022-10-16T00:45:01;15.10;99.90
670;DHT22;317;48.758;9.302;2022-10-16T00:47:33;15.00;99.90
670;DHT22;317;48.758;9.302;2022-10-16T00:50:07;15.00;99.90
670;DHT22;317;48.758;9.302;2022-10-16T00:52:34;14.90;99.90
670;DHT22;317;48.758;9.302;2022-10-16T00:55:02;14.90;99.90
670;DHT22;317;48.758;9.302;2022-10-16T00:57:29;14.90;99.90
670;DHT22;317;48.758;9.302;2022-10-16T00:59:57;14.80;99.90
670;DHT22;317;48.758;9.302;2022-10-16T01:02:24;14.70;99.90
670;DHT22;317;48.758;9.302;2022-10-16T01:04:53;14.70;99.90
670;DHT22;317;48.758;9.302;2022-10-16T01:07:31;14.70;99.90
670;DHT22;317;48.758;9.302;2022-10-16T01:10:06;14.70;99.90
670;DHT22;317;48.758;9.302;2022-10-16T01:12:42;14.60;99.90
670;DHT22;317;48.758;9.302;2022-10-16T01:15:16;14.60;99.90
670;DHT22;317;48.758;9.302;2022-10-16T01:17:50;14.60;99.90
670;DHT22;317;48.758;9.302;2022-10-16T01:20:26;14.70;99.90
670;DHT22;317;48.758;9.302;2022-10-16T01:23:03;14.60;99.90
670;DHT22;317;48.758;9.302;2022-10-16T01:25:39;14.60;99.90
670;DHT22;317;48.758;9.302;2022-10-16T01:28:11;14.60;99.90
670;DHT22;317;48.758;9.302;2022-10-16T01:30:42;14.60;99.90
670;DHT22;317;48.758;9.302;2022-10-16T01:33:14;14.60;99.90
670;DHT22;317;48.758;9.302;2022-10-16T01:35:45;14.60;99.90
670;DHT22;317;48.758;9.302;2022-10-16T01:38:19;14.70;99.90
670;DHT22;317;48.758;9.302;2022-10-16T01:40:50;14.60;99.90
670;DHT22;317;48.758;9.302;2022-10-16T01:43:24;14.60;99.90
670;DHT22;317;48.758;9.302;2022-10-16T01:45:52;14.60;99.90
670;DHT22;317;48.758;9.302;2022-10-16T01:48:21;14.60;99.90
670;DHT22;317;48.758;9.302;2022-10-16T01:50:54;14.60;99.90
670;DHT22;317;48.758;9.302;2022-10-16T01:53:22;14.60;99.90
670;DHT22;317;48.758;9.302;2022-10-16T01:55:52;14.30;99.90
670;DHT22;317;48.758;9.302;2022-10-16T01:58:23;14.60;99.90
670;DHT22;317;48.758;9.302;2022-10-16T02:00:51;14.60;99.90
670;DHT22;317;48.758;9.302;2022-10-16T02:03:19;14.60;99.90
670;DHT22;317;48.758;9.302;2022-10-16T02:05:50;14.70;99.90
670;DHT22;317;48.758;9.302;2022-10-16T02:08:18;14.20;99.90
670;DHT22;317;48.758;9.302;2022-10-16T02:10:45;14.70;99.90
670;DHT22;317;48.758;9.302;2022-10-16T02:13:14;14.70;99.90
670;DHT22;317;48.758;9.302;2022-10-16T02:15:43;14.70;99.90
670;DHT22;317;48.758;9.302;2022-10-16T02:18:11;14.70;99.90
670;DHT22;317;48.758;9.302;2022-10-16T02:20:43;14.70;99.90
670;DHT22;317;48.758;9.302;2022-10-16T02:23:15;14.70;99.90
670;DHT22;317;48.758;9.302;2022-10-16T02:25:46;14.70;99.90
670;DHT22;317;48.758;9.302;2022-10-16T02:28:16;14.50;99.90
670;DHT22;317;48.758;9.302;2022-10-16T02:30:49;14.60;99.90
670;DHT22;317;48.758;9.302;2022-10-16T02:33:18;14.70;99.90
670;DHT22;317;48.758;9.302;2022-10-16T02:35:47;14.80;99.90
670;DHT22;317;48.758;9.302;2022-10-16T02:38:16;14.70;99.90
670;DHT22;317;48.758;9.302;2022-10-16T02:40:44;14.70;99.90
670;DHT22;317;48.758;9.302;2022-10-16T02:43:11;14.80;99.90
670;DHT22;317;48.758;9.302;2022-10-16T02:45:38;14.80;99.90
670;DHT22;317;48.758;9.302;2022-10-16T02:48:06;14.80;99.90
670;DHT22;317;48.758;9.302;2022-10-16T02:50:33;14.70;99.90
670;DHT22;317;48.758;9.302;2022-10-16T02:53:00;14.90;99.90
670;DHT22;317;48.758;9.302;2022-10-16T02:55:27;14.70;99.90
670;DHT22;317;48.758;9.302;2022-10-16T02:57:54;14.80;99.90
670;DHT22;317;48.758;9.302;2022-10-16T03:00:21;14.80;99.90
670;DHT22;317;48.758;9.302;2022-10-16T03:02:48;14.80;99.90
670;DHT22;317;48.758;9.302;2022-10-16T03:05:16;14.70;99.90
670;DHT22;317;48.758;9.302;2022-10-16T03:07:43;14.80;99.90
670;DHT22;317;48.758;9.302;2022-10-16T03:10:10;14.60;99.90
670;DHT22;317;48.758;9.302;2022-10-16T03:12:37;14.80;99.90
670;DHT22;317;48.758;9.302;2022-10-16T03:15:04;14.70;99.90
670;DHT22;317;48.758;9.302;2022-10-16T03:17:32;14.70;99.90
670;DHT22;317;48.758;9.302;2022-10-16T03:20:00;14.70;99.90
670;DHT22;317;48.758;9.302;2022-10-16T03:22:28;14.70;99.90
670;DHT22;317;48.758;9.302;2022-10-16T03:24:54;14.70;99.90
670;DHT22;317;48.758;9.302;2022-10-16T03:27:22;14.50;99.90
670;DHT22;317;48.758;9.302;2022-10-16T03:29:48;14.60;99.90
670;DHT22;317;48.758;9.302;2022-10-16T03:32:15;14.60;99.90
670;DHT22;317;48.758;9.302;2022-10-16T03:34:42;14.60;99.90
670;DHT22;317;48.758;9.302;2022-10-16T03:37:09;14.60;99.90
670;DHT22;317;48.758;9.302;2022-10-16T03:39:37;14.50;99.90
670;DHT22;317;48.758;9.302;2022-10-16T03:42:04;14.60;99.90
670;DHT22;317;48.758;9.302;2022-10-16T03:44:31;14.60;99.90
670;DHT22;317;48.758;9.302;2022-10-16T03:46:57;14.60;99.90
670;DHT22;317;48.758;9.302;2022-10-16T03:49:24;14.60;99.90
670;DHT22;317;48.758;9.302;2022-10-16T03:51:51;14.50;99.90
670;DHT22;317;48.758;9.302;2022-10-16T03:54:17;14.60;99.90
670;DHT22;317;48.758;9.302;2022-10-16T03:56:46;14.60;99.90
670;DHT22;317;48.758;9.302;2022-10-16T03:59:12;14.50;99.90
670;DHT22;317;48.758;9.302;2022-10-16T04:01:39;14.50;99.90
670;DHT22;317;48.758;9.302;2022-10-16T04:04:06;14.50;99.90
670;DHT22;317;48.758;9.302;2022-10-16T04:06:33;14.40;99.90
670;DHT22;317;48.758;9.302;2022-10-16T04:08:59;14.40;99.90
670;DHT22;317;48.758;9.302;2022-10-16T04:11:26;14.20;99.90
670;DHT22;317;48.758;9.302;2022-10-16T04:13:55;14.00;99.90
670;DHT22;317;48.758;9.302;2022-10-16T04:16:22;14.40;99.90
670;DHT22;317;48.758;9.302;2022-10-16T04:18:49;14.30;99.90
670;DHT22;317;48.758;9.302;2022-10-16T04:21:16;14.10;99.90
670;DHT22;317;48.758;9.302;2022-10-16T04:23:42;13.90;99.90
670;DHT22;317;48.758;9.302;2022-10-16T04:26:09;14.30;99.90
670;DHT22;317;48.758;9.302;2022-10-16T04:28:36;14.30;99.90
670;DHT22;317;48.758;9.302;2022-10-16T04:31:05;14.20;99.90
670;DHT22;317;48.758;9.302;2022-10-16T04:33:32;14.30;99.90
670;DHT22;317;48.758;9.302;2022-10-16T04:36:00;13.90;99.90
670;DHT22;317;48.758;9.302;2022-10-16T04:38:27;13.90;99.90
670;DHT22;317;48.758;9.302;2022-10-16T04:40:54;14.00;99.90
670;DHT22;317;48.758;9.302;2022-10-16T04:43:21;13.90;99.90
670;DHT22;317;48.758;9.302;2022-10-16T04:45:48;14.00;99.90
670;DHT22;317;48.758;9.302;2022-10-16T04:48:17;14.20;99.90
670;DHT22;317;48.758;9.302;2022-10-16T04:50:44;14.00;99.90
670;DHT22;317;48.758;9.302;2022-10-16T04:53:11;14.40;99.90
670;DHT22;317;48.758;9.302;2022-10-16T04:55:38;14.50;99.90
670;DHT22;317;48.758;9.302;2022-10-16T04:58:05;14.40;99.90
670;DHT22;317;48.758;9.302;2022-10-16T05:00:35;14.40;99.90
670;DHT22;317;48.758;9.302;2022-10-16T05:03:05;14.40;99.90
670;DHT22;317;48.758;9.302;2022-10-16T05:05:35;14.30;99.90
670;DHT22;317;48.758;9.302;2022-10-16T05:08:03;14.40;99.90
670;DHT22;317;48.758;9.302;2022-10-16T05:10:29;14.40;99.90
670;DHT22;317;48.758;9.302;2022-10-16T05:12:56;14.40;99.90
670;DHT22;317;48.758;9.302;2022-10-16T05:15:23;14.40;99.90
670;DHT22;317;48.758;9.302;2022-10-16T05:17:53;13.90;99.90
670;DHT22;317;48.758;9.302;2022-10-16T05:20:20;14.30;99.90
670;DHT22;317;48.758;9.302;2022-10-16T05:22:48;14.40;99.90
670;DHT22;317;48.758;9.302;2022-10-16T05:25:15;14.40;99.90
670;DHT22;317;48.758;9.302;2022-10-16T05:27:42;14.40;99.90
670;DHT22;317;48.758;9.302;2022-10-16T05:30:09;14.30;99.90
670;DHT22;317;48.758;9.302;2022-10-16T05:32:36;14.40;99.90
670;DHT22;317;48.758;9.302;2022-10-16T05:35:03;14.50;99.90
670;DHT22;317;48.758;9.302;2022-10-16T05:37:30;14.40;99.90
670;DHT22;317;48.758;9.302;2022-10-16T05:39:58;14.40;99.90
670;DHT22;317;48.758;9.302;2022-10-16T05:42:25;14.30;99.90
670;DHT22;317;48.758;9.302;2022-10-16T05:44:51;13.90;99.90
670;DHT22;317;48.758;9.302;2022-10-16T05:47:18;14.30;99.90
670;DHT22;317;48.758;9.302;2022-10-16T05:49:46;14.40;99.90
670;DHT22;317;48.758;9.302;2022-10-16T05:52:13;14.10;99.90
670;DHT22;317;48.758;9.302;2022-10-16T05:54:43;14.20;99.90
670;DHT22;317;48.758;9.302;2022-10-16T05:57:11;14.20;99.90
670;DHT22;317;48.758;9.302;2022-10-16T05:59:37;14.40;99.90
670;DHT22;317;48.758;9.302;2022-10-16T06:02:04;13.70;99.90
670;DHT22;317;48.758;9.302;2022-10-16T06:04:31;14.20;99.90
670;DHT22;317;48.758;9.302;2022-10-16T06:06:58;14.30;99.90
670;DHT22;317;48.758;9.302;2022-10-16T06:09:26;14.10;99.90
670;DHT22;317;48.758;9.302;2022-10-16T06:11:53;14.10;99.90
670;DHT22;317;48.758;9.302;2022-10-16T06:14:21;14.40;99.90
670;DHT22;317;48.758;9.302;2022-10-16T06:16:48;14.00;99.90
670;DHT22;317;48.758;9.302;2022-10-16T06:19:15;14.40;99.90
670;DHT22;317;48.758;9.302;2022-10-16T06:21:43;14.40;99.90
670;DHT22;317;48.758;9.302;2022-10-16T06:24:09;14.50;99.90
670;DHT22;317;48.758;9.302;2022-10-16T06:26:37;14.50;99.90
670;DHT22;317;48.758;9.302;2022-10-16T06:29:04;14.60;99.90
670;DHT22;317;48.758;9.302;2022-10-16T06:31:33;14.60;99.90
670;DHT22;317;48.758;9.302;2022-10-16T06:33:59;14.70;99.90
670;DHT22;317;48.758;9.302;2022-10-16T06:36:27;14.70;99.90
670;DHT22;317;48.758;9.302;2022-10-16T06:38:54;14.80;99.90
670;DHT22;317;48.758;9.302;2022-10-16T06:41:22;14.90;99.90
670;DHT22;317;48.758;9.302;2022-10-16T06:43:49;15.00;99.90
670;DHT22;317;48.758;9.302;2022-10-16T06:46:18;15.00;99.90
670;DHT22;317;48.758;9.302;2022-10-16T06:48:46;15.20;99.90
670;DHT22;317;48.758;9.302;2022-10-16T06:51:15;15.20;99.90
670;DHT22;317;48.758;9.302;2022-10-16T06:53:44;15.30;99.90
670;DHT22;317;48.758;9.302;2022-10-16T06:56:13;15.40;99.90
670;DHT22;317;48.758;9.302;2022-10-16T06:58:41;15.50;99.90
670;DHT22;317;48.758;9.302;2022-10-16T07:01:08;15.60;99.90
670;DHT22;317;48.758;9.302;2022-10-16T07:03:36;15.70;99.90
670;DHT22;317;48.758;9.302;2022-10-16T07:06:06;15.80;99.90
670;DHT22;317;48.758;9.302;2022-10-16T07:08:33;15.80;99.90
670;DHT22;317;48.758;9.302;2022-10-16T07:11:00;15.90;99.90
670;DHT22;317;48.758;9.302;2022-10-16T07:13:27;15.90;99.90
670;DHT22;317;48.758;9.302;2022-10-16T07:15:54;16.00;99.90
670;DHT22;317;48.758;9.302;2022-10-16T07:18:22;16.10;99.90
670;DHT22;317;48.758;9.302;2022-10-16T07:20:52;16.20;99.90
670;DHT22;317;48.758;9.302;2022-10-16T07:23:20;16.20;99.90
670;DHT22;317;48.758;9.302;2022-10-16T07:25:53;16.20;99.90
670;DHT22;317;48.758;9.302;2022-10-16T07:28:20;16.20;99.90
670;DHT22;317;48.758;9.302;2022-10-16T07:30:47;16.20;99.90
670;DHT22;317;48.758;9.302;2022-10-16T07:33:14;16.10;99.90
670;DHT22;317;48.758;9.302;2022-10-16T07:35:47;16.20;99.90
670;DHT22;317;48.758;9.302;2022-10-16T07:38:14;16.10;99.90
670;DHT22;317;48.758;9.302;2022-10-16T07:40:42;16.20;99.90
670;DHT22;317;48.758;9.302;2022-10-16T07:43:09;16.10;99.90
670;DHT22;317;48.758;9.302;2022-10-16T07:45:36;16.10;99.90
670;DHT22;317;48.758;9.302;2022-10-16T07:48:03;16.10;99.90
670;DHT22;317;48.758;9.302;2022-10-16T07:50:30;16.20;99.90
670;DHT22;317;48.758;9.302;2022-10-16T07:52:56;16.20;99.90
670;DHT22;317;48.758;9.302;2022-10-16T07:55:23;16.20;99.90
670;DHT22;317;48.758;9.302;2022-10-16T07:57:51;16.30;99.90
670;DHT22;317;48.758;9.302;2022-10-16T08:00:18;16.30;99.90
670;DHT22;317;48.758;9.302;2022-10-16T08:02:45;16.20;99.90
670;DHT22;317;48.758;9.302;2022-10-16T08:05:11;16.40;99.90
670;DHT22;317;48.758;9.302;2022-10-16T08:07:38;16.40;99.90
670;DHT22;317;48.758;9.302;2022-10-16T08:10:05;16.50;99.90
670;DHT22;317;48.758;9.302;2022-10-16T08:12:33;16.60;99.90
670;DHT22;317;48.758;9.302;2022-10-16T08:15:01;16.60;99.90
670;DHT22;317;48.758;9.302;2022-10-16T08:17:27;16.60;99.90
670;DHT22;317;48.758;9.302;2022-10-16T08:19:54;16.70;99.90
670;DHT22;317;48.758;9.302;2022-10-16T08:22:21;16.80;99.90
670;DHT22;317;48.758;9.302;2022-10-16T08:24:48;16.90;99.90
670;DHT22;317;48.758;9.302;2022-10-16T08:27:14;17.10;99.90
670;DHT22;317;48.758;9.302;2022-10-16T08:29:41;17.10;99.90
670;DHT22;317;48.758;9.302;2022-10-16T08:32:09;17.00;99.90
670;DHT22;317;48.758;9.302;2022-10-16T08:34:36;17.10;99.90
670;DHT22;317;48.758;9.302;2022-10-16T08:37:03;17.40;99.90
670;DHT22;317;48.758;9.302;2022-10-16T08:39:30;17.70;99.90
670;DHT22;317;48.758;9.302;2022-10-16T08:42:11;17.90;99.90
670;DHT22;317;48.758;9.302;2022-10-16T08:44:59;18.00;99.90
670;DHT22;317;48.758;9.302;2022-10-16T08:47:39;18.10;99.90
670;DHT22;317;48.758;9.302;2022-10-16T08:50:11;17.90;99.90
670;DHT22;317;48.758;9.302;2022-10-16T08:52:40;18.10;99.90
670;DHT22;317;48.758;9.302;2022-10-16T08:55:23;18.40;99.90
670;DHT22;317;48.758;9.302;2022-10-16T08:57:51;18.20;99.90
670;DHT22;317;48.758;9.302;2022-10-16T09:00:18;18.20;99.90
670;DHT22;317;48.758;9.302;2022-10-16T09:02:52;18.20;99.90
670;DHT22;317;48.758;9.302;2022-10-16T09:05:25;18.10;99.90
670;DHT22;317;48.758;9.302;2022-10-16T09:08:03;18.00;99.90
670;DHT22;317;48.758;9.302;2022-10-16T09:10:42;18.10;99.90
670;DHT22;317;48.758;9.302;2022-10-16T09:13:17;18.30;99.90
670;DHT22;317;48.758;9.302;2022-10-16T09:15:52;18.40;99.90
670;DHT22;317;48.758;9.302;2022-10-16T09:18:26;18.20;99.90
670;DHT22;317;48.758;9.302;2022-10-16T09:21:00;18.20;99.90
670;DHT22;317;48.758;9.302;2022-10-16T09:23:34;18.50;99.90
670;DHT22;317;48.758;9.302;2022-10-16T09:26:02;18.90;99.90
670;DHT22;317;48.758;9.302;2022-10-16T09:28:30;19.30;99.90
670;DHT22;317;48.758;9.302;2022-10-16T09:30:57;19.40;99.90
670;DHT22;317;48.758;9.302;2022-10-16T09:33:28;19.50;99.90
670;DHT22;317;48.758;9.302;2022-10-16T09:35:57;19.10;99.90
670;DHT22;317;48.758;9.302;2022-10-16T09:38:26;19.40;99.90
670;DHT22;317;48.758;9.302;2022-10-16T09:40:54;19.80;99.90
670;DHT22;317;48.758;9.302;2022-10-16T09:43:24;19.90;99.90
670;DHT22;317;48.758;9.302;2022-10-16T09:46:03;20.00;99.90
670;DHT22;317;48.758;9.302;2022-10-16T09:48:36;20.90;99.90
670;DHT22;317;48.758;9.302;2022-10-16T09:51:06;21.80;99.90
670;DHT22;317;48.758;9.302;2022-10-16T09:53:41;21.60;99.90
670;DHT22;317;48.758;9.302;2022-10-16T09:56:10;21.60;99.90
670;DHT22;317;48.758;9.302;2022-10-16T09:58:42;22.20;99.90
670;DHT22;317;48.758;9.302;2022-10-16T10:01:13;22.80;99.90
670;DHT22;317;48.758;9.302;2022-10-16T10:03:44;22.70;99.90
670;DHT22;317;48.758;9.302;2022-10-16T10:06:18;23.40;99.90
670;DHT22;317;48.758;9.302;2022-10-16T10:08:56;23.50;99.90
670;DHT22;317;48.758;9.302;2022-10-16T10:11:42;24.70;99.90
670;DHT22;317;48.758;9.302;2022-10-16T10:14:17;25.60;99.90
670;DHT22;317;48.758;9.302;2022-10-16T10:16:47;26.60;99.90
670;DHT22;317;48.758;9.302;2022-10-16T10:19:16;26.00;99.90
670;DHT22;317;48.758;9.302;2022-10-16T10:21:43;25.80;99.90
670;DHT22;317;48.758;9.302;2022-10-16T10:24:11;25.30;99.90
670;DHT22;317;48.758;9.302;2022-10-16T10:26:39;25.10;99.90
670;DHT22;317;48.758;9.302;2022-10-16T10:29:15;25.10;99.90
670;DHT22;317;48.758;9.302;2022-10-16T10:31:49;24.40;99.90
670;DHT22;317;48.758;9.302;2022-10-16T10:34:34;24.00;99.90
670;DHT22;317;48.758;9.302;2022-10-16T10:37:08;24.70;99.90
670;DHT22;317;48.758;9.302;2022-10-16T10:39:41;24.80;99.90
670;DHT22;317;48.758;9.302;2022-10-16T10:42:19;25.60;99.90
670;DHT22;317;48.758;9.302;2022-10-16T10:45:01;26.10;99.90
670;DHT22;317;48.758;9.302;2022-10-16T10:47:38;26.80;99.90
670;DHT22;317;48.758;9.302;2022-10-16T10:50:14;27.90;96.00
670;DHT22;317;48.758;9.302;2022-10-16T10:52:54;28.40;92.40
670;DHT22;317;48.758;9.302;2022-10-16T10:55:29;29.50;88.10
670;DHT22;317;48.758;9.302;2022-10-16T10:58:19;29.90;81.20
670;DHT22;317;48.758;9.302;2022-10-16T11:00:55;31.10;79.80
670;DHT22;317;48.758;9.302;2022-10-16T11:03:35;29.60;75.50
670;DHT22;317;48.758;9.302;2022-10-16T11:06:11;27.30;87.90
670;DHT22;317;48.758;9.302;2022-10-16T11:08:42;28.30;82.00
670;DHT22;317;48.758;9.302;2022-10-16T11:11:16;28.70;79.80
670;DHT22;317;48.758;9.302;2022-10-16T11:13:52;28.00;80.90
670;DHT22;317;48.758;9.302;2022-10-16T11:16:24;29.20;77.60
670;DHT22;317;48.758;9.302;2022-10-16T11:18:58;28.60;80.60
670;DHT22;317;48.758;9.302;2022-10-16T11:21:30;29.30;73.30
670;DHT22;317;48.758;9.302;2022-10-16T11:24:06;29.70;72.50
670;DHT22;317;48.758;9.302;2022-10-16T11:26:41;31.60;68.10
670;DHT22;317;48.758;9.302;2022-10-16T11:29:15;30.00;67.60
670;DHT22;317;48.758;9.302;2022-10-16T11:31:45;30.60;66.80
670;DHT22;317;48.758;9.302;2022-10-16T11:34:21;28.90;67.10
670;DHT22;317;48.758;9.302;2022-10-16T11:36:53;27.00;69.50
670;DHT22;317;48.758;9.302;2022-10-16T11:39:24;28.20;73.20
670;DHT22;317;48.758;9.302;2022-10-16T11:41:54;28.50;70.20
670;DHT22;317;48.758;9.302;2022-10-16T11:44:37;27.90;74.00
670;DHT22;317;48.758;9.302;2022-10-16T11:47:19;29.40;73.10
670;DHT22;317;48.758;9.302;2022-10-16T11:49:53;30.30;68.50
670;DHT22;317;48.758;9.302;2022-10-16T11:52:30;31.40;63.50
670;DHT22;317;48.758;9.302;2022-10-16T11:55:04;28.70;71.20
670;DHT22;317;48.758;9.302;2022-10-16T11:57:34;28.30;71.60
670;DHT22;317;48.758;9.302;2022-10-16T12:00:08;29.50;67.80
670;DHT22;317;48.758;9.302;2022-10-16T12:02:44;29.00;69.50
670;DHT22;317;48.758;9.302;2022-10-16T12:05:22;29.60;67.10
670;DHT22;317;48.758;9.302;2022-10-16T12:07:59;31.10;61.90
670;DHT22;317;48.758;9.302;2022-10-16T12:10:29;32.90;57.60
670;DHT22;317;48.758;9.302;2022-10-16T12:13:02;33.70;54.40
670;DHT22;317;48.758;9.302;2022-10-16T12:15:31;32.30;53.20
670;DHT22;317;48.758;9.302;2022-10-16T12:17:58;31.80;55.70
670;DHT22;317;48.758;9.302;2022-10-16T12:20:28;31.60;55.90
670;DHT22;317;48.758;9.302;2022-10-16T12:23:00;31.20;57.30
670;DHT22;317;48.758;9.302;2022-10-16T12:25:30;32.40;56.40
670;DHT22;317;48.758;9.302;2022-10-16T12:28:00;31.80;54.10
670;DHT22;317;48.758;9.302;2022-10-16T12:30:30;31.20;55.30
670;DHT22;317;48.758;9.302;2022-10-16T12:32:59;31.80;53.10
670;DHT22;317;48.758;9.302;2022-10-16T12:35:29;32.00;53.90
670;DHT22;317;48.758;9.302;2022-10-16T12:38:07;33.10;51.20
670;DHT22;317;48.758;9.302;2022-10-16T12:40:37;32.80;51.80
670;DHT22;317;48.758;9.302;2022-10-16T12:43:13;31.40;53.20
670;DHT22;317;48.758;9.302;2022-10-16T12:46:00;32.20;51.50
670;DHT22;317;48.758;9.302;2022-10-16T12:48:27;33.00;50.90
670;DHT22;317;48.758;9.302;2022-10-16T12:50:57;32.30;52.80
670;DHT22;317;48.758;9.302;2022-10-16T12:53:26;31.70;51.60
670;DHT22;317;48.758;9.302;2022-10-16T12:56:04;32.50;50.80
670;DHT22;317;48.758;9.302;2022-10-16T12:58:46;32.80;49.90
670;DHT22;317;48.758;9.302;2022-10-16T13:01:24;30.40;53.50
670;DHT22;317;48.758;9.302;2022-10-16T13:04:05;28.70;57.80
670;DHT22;317;48.758;9.302;2022-10-16T13:06:42;27.10;64.20
670;DHT22;317;48.758;9.302;2022-10-16T13:09:32;26.60;69.00
670;DHT22;317;48.758;9.302;2022-10-16T13:12:25;25.40;76.80
670;DHT22;317;48.758;9.302;2022-10-16T13:15:22;25.40;81.70
670;DHT22;317;48.758;9.302;2022-10-16T13:18:00;25.80;79.80
670;DHT22;317;48.758;9.302;2022-10-16T13:20:34;25.80;77.70
670;DHT22;317;48.758;9.302;2022-10-16T13:23:08;25.60;86.50
670;DHT22;317;48.758;9.302;2022-10-16T13:25:46;26.60;82.40
670;DHT22;317;48.758;9.302;2022-10-16T13:28:18;26.30;77.80
670;DHT22;317;48.758;9.302;2022-10-16T13:30:52;26.60;82.40
670;DHT22;317;48.758;9.302;2022-10-16T13:33:23;26.80;75.20
670;DHT22;317;48.758;9.302;2022-10-16T13:35:55;26.90;79.70
670;DHT22;317;48.758;9.302;2022-10-16T13:38:24;27.70;75.20
670;DHT22;317;48.758;9.302;2022-10-16T13:40:57;28.30;69.50
670;DHT22;317;48.758;9.302;2022-10-16T13:43:27;28.40;69.80
670;DHT22;317;48.758;9.302;2022-10-16T13:45:57;27.30;69.20
670;DHT22;317;48.758;9.302;2022-10-16T13:48:25;26.00;76.30
670;DHT22;317;48.758;9.302;2022-10-16T13:51:03;26.60;77.80
670;DHT22;317;48.758;9.302;2022-10-16T13:53:31;27.50;74.50
670;DHT22;317;48.758;9.302;2022-10-16T13:56:01;28.10;68.50
670;DHT22;317;48.758;9.302;2022-10-16T13:58:28;26.90;70.40
670;DHT22;317;48.758;9.302;2022-10-16T14:00:57;26.80;72.20
670;DHT22;317;48.758;9.302;2022-10-16T14:03:25;27.40;74.60
670;DHT22;317;48.758;9.302;2022-10-16T14:05:55;27.70;72.30
670;DHT22;317;48.758;9.302;2022-10-16T14:08:25;27.50;69.10
670;DHT22;317;48.758;9.302;2022-10-16T14:10:54;27.30;74.20
670;DHT22;317;48.758;9.302;2022-10-16T14:13:29;27.20;73.10
670;DHT22;317;48.758;9.302;2022-10-16T14:15:56;26.70;81.40
670;DHT22;317;48.758;9.302;2022-10-16T14:18:27;26.40;81.60
670;DHT22;317;48.758;9.302;2022-10-16T14:20:55;26.20;88.00
670;DHT22;317;48.758;9.302;2022-10-16T14:23:31;25.90;93.20
670;DHT22;317;48.758;9.302;2022-10-16T14:26:12;25.80;94.30
670;DHT22;317;48.758;9.302;2022-10-16T14:28:42;25.60;97.30
670;DHT22;317;48.758;9.302;2022-10-16T14:31:30;25.40;99.90
670;DHT22;317;48.758;9.302;2022-10-16T14:33:59;25.40;98.50
670;DHT22;317;48.758;9.302;2022-10-16T14:36:29;25.10;99.00
670;DHT22;317;48.758;9.302;2022-10-16T14:39:03;25.00;99.90
670;DHT22;317;48.758;9.302;2022-10-16T14:41:31;25.10;99.90
670;DHT22;317;48.758;9.302;2022-10-16T14:44:03;25.10;99.90
670;DHT22;317;48.758;9.302;2022-10-16T14:46:34;25.00;99.90
670;DHT22;317;48.758;9.302;2022-10-16T14:49:04;24.90;99.90
670;DHT22;317;48.758;9.302;2022-10-16T14:51:40;25.10;99.90
670;DHT22;317;48.758;9.302;2022-10-16T14:54:09;25.20;99.90
670;DHT22;317;48.758;9.302;2022-10-16T14:56:46;25.20;99.90
670;DHT22;317;48.758;9.302;2022-10-16T14:59:17;25.20;99.90
670;DHT22;317;48.758;9.302;2022-10-16T15:01:50;25.40;99.90
670;DHT22;317;48.758;9.302;2022-10-16T15:04:17;25.50;99.90
670;DHT22;317;48.758;9.302;2022-10-16T15:06:45;25.70;99.90
670;DHT22;317;48.758;9.302;2022-10-16T15:09:12;26.10;99.90
670;DHT22;317;48.758;9.302;2022-10-16T15:11:39;26.10;98.20
670;DHT22;317;48.758;9.302;2022-10-16T15:14:09;26.30;98.40
670;DHT22;317;48.758;9.302;2022-10-16T15:16:38;25.90;99.90
670;DHT22;317;48.758;9.302;2022-10-16T15:19:05;25.70;96.60
670;DHT22;317;48.758;9.302;2022-10-16T15:21:33;25.60;94.00
670;DHT22;317;48.758;9.302;2022-10-16T15:24:01;25.70;95.60
670;DHT22;317;48.758;9.302;2022-10-16T15:26:29;25.70;97.40
670;DHT22;317;48.758;9.302;2022-10-16T15:28:56;25.90;93.00
670;DHT22;317;48.758;9.302;2022-10-16T15:31:23;25.90;95.80
670;DHT22;317;48.758;9.302;2022-10-16T15:33:52;26.20;99.90
670;DHT22;317;48.758;9.302;2022-10-16T15:36:27;26.30;99.90
670;DHT22;317;48.758;9.302;2022-10-16T15:38:55;26.40;99.60
670;DHT22;317;48.758;9.302;2022-10-16T15:41:22;26.00;99.90
670;DHT22;317;48.758;9.302;2022-10-16T15:43:49;25.80;99.00
670;DHT22;317;48.758;9.302;2022-10-16T15:46:19;25.50;99.90
670;DHT22;317;48.758;9.302;2022-10-16T15:48:47;25.10;99.90
670;DHT22;317;48.758;9.302;2022-10-16T15:51:16;24.70;99.90
670;DHT22;317;48.758;9.302;2022-10-16T15:53:43;24.20;99.90
670;DHT22;317;48.758;9.302;2022-10-16T15:56:13;24.00;99.90
670;DHT22;317;48.758;9.302;2022-10-16T15:58:39;23.80;99.90
670;DHT22;317;48.758;9.302;2022-10-16T16:01:06;23.60;99.90
670;DHT22;317;48.758;9.302;2022-10-16T16:03:36;23.20;99.90
670;DHT22;317;48.758;9.302;2022-10-16T16:06:06;23.00;99.90
670;DHT22;317;48.758;9.302;2022-10-16T16:08:34;22.70;99.90
670;DHT22;317;48.758;9.302;2022-10-16T16:11:03;22.40;99.90
670;DHT22;317;48.758;9.302;2022-10-16T16:13:30;22.20;99.90
670;DHT22;317;48.758;9.302;2022-10-16T16:15:57;21.90;99.90
670;DHT22;317;48.758;9.302;2022-10-16T16:18:24;21.70;99.90
670;DHT22;317;48.758;9.302;2022-10-16T16:20:51;21.60;99.90
670;DHT22;317;48.758;9.302;2022-10-16T16:23:17;21.40;99.90
670;DHT22;317;48.758;9.302;2022-10-16T16:26:08;21.30;99.90
670;DHT22;317;48.758;9.302;2022-10-16T16:28:37;21.10;99.90
670;DHT22;317;48.758;9.302;2022-10-16T16:31:04;20.80;99.90
670;DHT22;317;48.758;9.302;2022-10-16T16:33:32;20.60;99.90
670;DHT22;317;48.758;9.302;2022-10-16T16:35:59;20.40;99.90
670;DHT22;317;48.758;9.302;2022-10-16T16:38:28;20.20;99.90
670;DHT22;317;48.758;9.302;2022-10-16T16:40:55;20.10;99.90
670;DHT22;317;48.758;9.302;2022-10-16T16:43:24;19.90;99.90
670;DHT22;317;48.758;9.302;2022-10-16T16:45:51;19.80;99.90
670;DHT22;317;48.758;9.302;2022-10-16T16:48:18;19.70;99.90
670;DHT22;317;48.758;9.302;2022-10-16T16:50:45;19.50;99.90
670;DHT22;317;48.758;9.302;2022-10-16T16:53:11;19.40;99.90